Hagarstown, Illinois
Current Conditions -  °F | °C
As of 7:55 AM on Monday 20 Oct 2014 (Local Time) from KSLO Reporting Station
Scattered Clouds Scattered Clouds  
Wind Chill: 55°   Ceiling: Unl
Heat Index: 55°   Visibility: 10mi
Dew Point: 50°   Wind: 7mph
Humidity: 85%   Direction: 210°SSW
Pressure: 29.97"   Gusts: NA
Location:  38.94°N, 89.17°W
Report Text: KSLO 201255Z AUTO 21006KT 10SM SCT090 SCT110 13/10 A2997 RMK AO2 T01250100
Loading
Personal Weather Stations






























Interactive Weather Map
Tropical Storm Tracking
New forecast layout! Learn more

10-Day Weather Forecast

Advertisements
Track Severe Weather on mobile